createdAt,value
2022-12-18T00:01:24.337Z,99367.53
2022-12-18T00:03:52.614Z,99359.06
2022-12-18T00:06:20.978Z,99359.69
2022-12-18T00:08:48.111Z,99352.84
2022-12-18T00:11:17.849Z,99343.97
2022-12-18T00:13:45.615Z,99339.78
2022-12-18T00:16:19.584Z,99335.19
2022-12-18T00:18:46.728Z,99329.06
2022-12-18T00:21:15.415Z,99330.53
2022-12-18T00:23:44.669Z,99323.38
2022-12-18T00:26:24.046Z,99325.50
2022-12-18T00:28:56.687Z,99320.31
2022-12-18T00:31:25.559Z,99317.22
2022-12-18T00:33:58.197Z,99296.06
2022-12-18T00:36:28.018Z,99314.28
2022-12-18T00:38:56.661Z,99293.06
2022-12-18T00:41:43.323Z,99303.88
2022-12-18T00:44:13.333Z,99290.53
2022-12-18T00:46:41.270Z,99299.41
2022-12-18T00:49:08.548Z,99286.69
2022-12-18T00:51:36.023Z,99287.97
2022-12-18T00:54:03.448Z,99270.50
2022-12-18T00:56:31.456Z,99268.22
2022-12-18T00:58:58.537Z,99253.69
2022-12-18T01:01:25.672Z,99258.84
2022-12-18T01:03:52.840Z,99251.47
2022-12-18T01:06:21.042Z,99245.19
2022-12-18T01:08:48.084Z,99238.94
2022-12-18T01:11:21.366Z,99232.34
2022-12-18T01:13:48.925Z,99232.22
2022-12-18T01:16:17.918Z,99225.25
2022-12-18T01:18:45.348Z,99242.19
2022-12-18T01:21:17.260Z,99236.84
2022-12-18T01:23:44.298Z,99230.94
2022-12-18T01:26:16.114Z,99226.97
2022-12-18T01:28:45.144Z,99218.53
2022-12-18T01:31:15.047Z,99223.66
2022-12-18T01:33:42.496Z,99221.06
2022-12-18T01:36:15.402Z,99225.31
2022-12-18T01:38:42.500Z,99232.06
2022-12-18T01:41:10.724Z,99241.84
2022-12-18T01:43:49.661Z,99223.66
2022-12-18T01:46:18.492Z,99193.00
2022-12-18T01:48:49.192Z,99220.72
2022-12-18T01:51:17.006Z,99217.25
2022-12-18T01:53:46.165Z,99219.97
2022-12-18T01:56:18.954Z,99218.13
2022-12-18T01:58:58.387Z,99217.50
2022-12-18T02:01:26.572Z,99220.69
2022-12-18T02:03:54.104Z,99216.88
2022-12-18T02:06:30.652Z,99214.31
2022-12-18T02:09:07.272Z,99218.06
2022-12-18T02:11:40.699Z,99197.31
2022-12-18T02:14:12.139Z,99204.63
2022-12-18T02:17:02.927Z,99206.28
2022-12-18T02:20:00.454Z,99211.25
2022-12-18T02:22:27.495Z,99215.66
2022-12-18T02:25:12.869Z,99217.34
2022-12-18T02:27:41.568Z,99198.69
2022-12-18T02:30:09.727Z,99205.53
2022-12-18T02:32:43.211Z,99198.47
2022-12-18T02:35:16.026Z,99177.22
2022-12-18T02:37:46.018Z,99190.66
2022-12-18T02:40:15.012Z,99206.50
2022-12-18T02:42:42.227Z,99194.06
2022-12-18T02:45:11.371Z,99200.34
2022-12-18T02:47:41.973Z,99199.84
2022-12-18T02:50:28.310Z,99210.28
2022-12-18T02:53:10.083Z,99214.13
2022-12-18T02:55:55.884Z,99212.72
2022-12-18T02:58:32.004Z,99214.00
2022-12-18T03:01:16.457Z,99215.81
2022-12-18T03:03:47.900Z,99185.59
2022-12-18T03:06:24.774Z,99194.56
2022-12-18T03:09:00.736Z,99193.28
2022-12-18T03:11:49.777Z,99178.41
2022-12-18T03:14:21.190Z,99187.53
2022-12-18T03:16:54.308Z,99161.19
2022-12-18T03:19:25.335Z,99181.09
2022-12-18T03:21:56.849Z,99171.72
2022-12-18T03:24:29.967Z,99190.91
2022-12-18T03:27:02.827Z,99191.56
2022-12-18T03:29:52.363Z,99210.19
2022-12-18T03:32:30.726Z,99214.34
2022-12-18T03:35:03.872Z,99193.09
2022-12-18T03:37:34.723Z,99200.22
2022-12-18T03:40:02.205Z,99201.91
2022-12-18T03:42:36.272Z,99202.41
2022-12-18T03:45:15.406Z,99205.28
2022-12-18T03:48:05.321Z,99193.84
2022-12-18T03:51:19.480Z,99201.41
2022-12-18T03:53:50.248Z,99201.38
2022-12-18T03:56:23.652Z,99193.75
2022-12-18T03:58:53.808Z,99196.91
2022-12-18T04:01:30.685Z,99168.59
2022-12-18T04:04:01.817Z,99184.47
2022-12-18T04:06:35.628Z,99201.06
2022-12-18T04:09:02.983Z,99195.75
2022-12-18T04:11:33.237Z,99193.53
2022-12-18T04:14:07.049Z,99184.63
2022-12-18T04:16:34.668Z,99181.38
2022-12-18T04:19:04.671Z,99191.94
2022-12-18T04:21:38.037Z,99199.47
2022-12-18T04:24:06.060Z,99221.59
2022-12-18T04:26:35.589Z,99214.69
2022-12-18T04:29:22.753Z,99242.09
2022-12-18T04:31:49.976Z,99234.44
2022-12-18T04:34:17.410Z,99241.72
2022-12-18T04:36:50.031Z,99246.09
2022-12-18T04:39:18.923Z,99249.91
2022-12-18T04:41:46.855Z,99266.88
2022-12-18T04:44:15.009Z,99263.03
2022-12-18T04:46:42.153Z,99276.50
2022-12-18T04:49:09.288Z,99278.31
2022-12-18T04:51:36.240Z,99275.84
2022-12-18T04:54:03.376Z,99273.50
2022-12-18T04:56:32.851Z,99302.19
2022-12-18T04:58:59.818Z,99298.59
2022-12-18T05:01:32.547Z,99305.72
2022-12-18T05:04:02.297Z,99316.41
2022-12-18T05:06:29.425Z,99315.47
2022-12-18T05:08:56.540Z,99327.50
2022-12-18T05:11:23.676Z,99300.91
2022-12-18T05:13:50.662Z,99301.41
2022-12-18T05:16:17.799Z,99293.56
2022-12-18T05:18:44.805Z,99308.66
2022-12-18T05:21:11.917Z,99311.91
2022-12-18T05:23:39.293Z,99307.81
2022-12-18T05:26:08.958Z,99310.03
2022-12-18T05:28:37.325Z,99307.13
2022-12-18T05:31:05.534Z,99312.88
2022-12-18T05:33:35.418Z,99321.22
2022-12-18T05:36:06.270Z,99328.16
2022-12-18T05:38:35.090Z,99343.22
2022-12-18T05:41:02.364Z,99350.13
2022-12-18T05:43:29.895Z,99348.03
2022-12-18T05:45:58.612Z,99357.59
2022-12-18T05:48:26.072Z,99355.13
2022-12-18T05:50:53.036Z,99362.09
2022-12-18T05:53:21.392Z,99370.50
2022-12-18T05:55:48.897Z,99356.38
2022-12-18T05:58:16.892Z,99375.84
2022-12-18T06:00:47.035Z,99381.28
2022-12-18T06:03:14.649Z,99383.91
2022-12-18T06:05:46.303Z,99387.50
2022-12-18T06:08:14.293Z,99391.41
2022-12-18T06:10:42.665Z,99396.75
2022-12-18T06:13:09.772Z,99400.44
2022-12-18T06:15:40.031Z,99391.84
2022-12-18T06:18:07.015Z,99410.28
2022-12-18T06:20:34.779Z,99407.78
2022-12-18T06:23:01.780Z,99416.13
2022-12-18T06:25:28.854Z,99398.34
2022-12-18T06:27:55.887Z,99396.94
2022-12-18T06:30:23.004Z,99406.78
2022-12-18T06:32:56.324Z,99421.63
2022-12-18T06:35:24.139Z,99424.03
2022-12-18T06:37:51.268Z,99420.38
2022-12-18T06:40:18.373Z,99424.97
2022-12-18T06:42:45.390Z,99414.84
2022-12-18T06:45:12.673Z,99443.22
2022-12-18T06:47:39.750Z,99453.13
2022-12-18T06:50:07.390Z,99460.97
2022-12-18T06:52:34.733Z,99447.06
2022-12-18T06:55:01.839Z,99475.19
2022-12-18T06:57:29.972Z,99486.69
2022-12-18T06:59:56.986Z,99491.00
2022-12-18T07:02:24.104Z,99477.25
2022-12-18T07:04:51.160Z,99503.13
2022-12-18T07:07:18.523Z,99507.53
2022-12-18T07:09:45.488Z,99502.28
2022-12-18T07:12:12.555Z,99502.09
2022-12-18T07:14:39.564Z,99497.13
2022-12-18T07:17:06.695Z,99509.94
2022-12-18T07:19:34.342Z,99490.81
2022-12-18T07:22:01.645Z,99480.81
2022-12-18T07:24:29.516Z,99510.94
2022-12-18T07:26:56.494Z,99515.38
2022-12-18T07:29:23.512Z,99523.28
2022-12-18T07:31:50.491Z,99527.94
2022-12-18T07:34:18.692Z,99522.78
2022-12-18T07:36:45.720Z,99535.25
2022-12-18T07:39:13.158Z,99544.25
2022-12-18T07:41:46.702Z,99535.59
2022-12-18T07:44:16.538Z,99551.41
2022-12-18T07:46:43.549Z,99552.06
2022-12-18T07:49:10.532Z,99549.63
2022-12-18T07:51:37.531Z,99555.28
2022-12-18T07:54:04.581Z,99564.44
2022-12-18T07:56:31.771Z,99551.69
2022-12-18T07:59:00.105Z,99561.38
2022-12-18T08:01:29.674Z,99558.72
2022-12-18T08:03:58.637Z,99555.34
2022-12-18T08:06:28.011Z,99560.59
2022-12-18T08:08:56.534Z,99557.75
2022-12-18T08:11:25.623Z,99575.09
2022-12-18T08:13:53.522Z,99583.56
2022-12-18T08:16:21.333Z,99586.81
2022-12-18T08:18:49.613Z,99589.53
2022-12-18T08:21:22.164Z,99580.47
2022-12-18T08:23:51.337Z,99593.38
2022-12-18T08:26:19.541Z,99609.22
2022-12-18T08:28:48.629Z,99624.06
2022-12-18T08:31:16.697Z,99636.97
2022-12-18T08:33:44.088Z,99619.00
2022-12-18T08:36:11.436Z,99635.66
2022-12-18T08:38:38.690Z,99635.94
2022-12-18T08:41:11.019Z,99630.22
2022-12-18T08:43:56.748Z,99639.09
2022-12-18T08:46:25.916Z,99637.31
2022-12-18T08:48:54.510Z,99639.38
2022-12-18T08:51:21.666Z,99648.81
2022-12-18T08:53:48.948Z,99645.00
2022-12-18T08:56:16.117Z,99641.41
2022-12-18T08:58:43.374Z,99651.41
2022-12-18T09:01:12.402Z,99653.03
2022-12-18T09:03:40.660Z,99653.84
2022-12-18T09:06:08.777Z,99657.94
2022-12-18T09:08:38.012Z,99656.00
2022-12-18T09:11:05.624Z,99650.63
2022-12-18T09:13:32.674Z,99654.16
2022-12-18T09:15:59.737Z,99654.28
2022-12-18T09:18:26.696Z,99649.38
2022-12-18T09:20:53.991Z,99670.47
2022-12-18T09:23:22.281Z,99651.13
2022-12-18T09:25:49.732Z,99684.47
2022-12-18T09:28:19.334Z,99695.78
2022-12-18T09:31:08.474Z,99688.47
2022-12-18T09:33:39.335Z,99689.34
2022-12-18T09:36:09.632Z,99691.34
2022-12-18T09:38:37.142Z,99698.00
2022-12-18T09:41:19.593Z,99707.25
2022-12-18T09:44:01.654Z,99714.06
2022-12-18T09:46:34.170Z,99720.47
2022-12-18T09:49:06.263Z,99719.31
2022-12-18T09:51:48.316Z,99714.00
2022-12-18T09:54:25.467Z,99715.19
2022-12-18T09:56:53.417Z,99721.97
2022-12-18T09:59:42.767Z,99725.50
2022-12-18T10:02:22.539Z,99718.97
2022-12-18T10:05:06.502Z,99719.69
2022-12-18T10:07:42.999Z,99727.47
2022-12-18T10:10:22.486Z,99728.59
2022-12-18T10:13:16.758Z,99737.69
2022-12-18T10:15:52.931Z,99742.13
2022-12-18T10:18:38.241Z,99737.47
2022-12-18T10:21:16.891Z,99731.59
2022-12-18T10:24:01.713Z,99738.97
2022-12-18T10:26:28.691Z,99731.72
2022-12-18T10:29:02.151Z,99726.44
2022-12-18T10:31:32.464Z,99730.69
2022-12-18T10:33:59.614Z,99731.00
2022-12-18T10:36:27.535Z,99733.78
2022-12-18T10:38:54.534Z,99729.41
2022-12-18T10:41:23.178Z,99728.19
2022-12-18T10:44:20.313Z,99745.03
2022-12-18T10:46:50.349Z,99741.97
2022-12-18T10:49:49.620Z,99747.00
2022-12-18T10:52:20.611Z,99750.34
2022-12-18T10:55:00.568Z,99764.69
2022-12-18T10:57:27.490Z,99769.59
2022-12-18T10:59:56.854Z,99784.78
2022-12-18T11:02:37.055Z,99786.16
2022-12-18T11:05:24.389Z,99798.88
2022-12-18T11:07:54.795Z,99809.22
2022-12-18T11:10:36.584Z,99812.09
2022-12-18T11:13:21.431Z,99813.66
2022-12-18T11:15:49.414Z,99828.19
2022-12-18T11:18:35.867Z,99816.69
2022-12-18T11:21:09.065Z,99810.41
2022-12-18T11:23:37.320Z,99815.84
2022-12-18T11:26:07.091Z,99807.75
2022-12-18T11:28:37.535Z,99821.72
2022-12-18T11:31:32.444Z,99807.06
2022-12-18T11:34:28.073Z,99813.91
2022-12-18T11:36:49.531Z,99824.41
2022-12-18T11:39:46.981Z,99828.66
2022-12-18T11:42:24.164Z,99811.28
2022-12-18T11:45:00.130Z,99833.88
2022-12-18T11:47:45.103Z,99831.44
2022-12-18T11:50:18.555Z,99842.44
2022-12-18T11:52:47.128Z,99843.06
2022-12-18T11:55:22.406Z,99846.72
2022-12-18T11:58:02.856Z,99859.38
2022-12-18T12:00:29.966Z,99860.47
2022-12-18T12:03:25.593Z,99868.84
2022-12-18T12:06:01.580Z,99873.66
2022-12-18T12:08:52.134Z,99890.94
2022-12-18T12:11:26.709Z,99896.50
2022-12-18T12:14:15.690Z,99903.50
2022-12-18T12:16:49.223Z,99904.53
2022-12-18T12:19:40.906Z,99914.78
2022-12-18T12:22:16.908Z,99914.72
2022-12-18T12:25:19.252Z,99910.41
2022-12-18T12:27:58.426Z,99923.94
2022-12-18T12:30:38.359Z,99928.84
2022-12-18T12:33:26.460Z,99936.81
2022-12-18T12:36:08.502Z,99939.44
2022-12-18T12:38:58.793Z,99931.69
2022-12-18T12:41:55.224Z,99942.94
2022-12-18T12:44:33.517Z,99941.84
2022-12-18T12:47:05.811Z,99940.97
2022-12-18T12:49:39.027Z,99946.63
2022-12-18T12:52:14.593Z,99956.59
2022-12-18T12:54:43.281Z,99951.47
2022-12-18T12:57:20.939Z,99964.72
2022-12-18T13:00:04.753Z,99982.41
2022-12-18T13:02:55.278Z,99983.25
2022-12-18T13:05:31.219Z,99987.13
2022-12-18T13:07:59.320Z,100001.53
2022-12-18T13:10:34.039Z,99991.88
2022-12-18T13:13:21.146Z,100002.91
2022-12-18T13:16:06.025Z,100012.03
2022-12-18T13:18:34.428Z,100012.03
2022-12-18T13:21:03.314Z,100023.25
2022-12-18T13:23:32.932Z,100018.94
2022-12-18T13:26:11.542Z,100026.47
2022-12-18T13:28:47.909Z,100031.50
2022-12-18T13:31:39.811Z,100037.81
2022-12-18T13:34:31.456Z,100030.50
2022-12-18T13:37:33.917Z,100048.50
2022-12-18T13:40:01.332Z,100051.84
2022-12-18T13:42:57.684Z,100059.34
2022-12-18T13:45:50.274Z,100061.03
2022-12-18T13:48:24.446Z,100077.88
2022-12-18T13:51:01.835Z,100081.06
2022-12-18T13:53:44.647Z,100093.00
2022-12-18T13:56:22.641Z,100092.28
2022-12-18T13:59:22.830Z,100103.44
2022-12-18T14:01:55.156Z,100112.53
2022-12-18T14:04:24.129Z,100110.25
2022-12-18T14:06:54.461Z,100113.28
2022-12-18T14:09:29.137Z,100117.56
2022-12-18T14:12:18.168Z,100123.22
2022-12-18T14:14:51.525Z,100128.81
2022-12-18T14:17:22.023Z,100123.22
2022-12-18T14:19:52.300Z,100116.28
2022-12-18T14:22:22.840Z,100143.09
2022-12-18T14:25:17.001Z,100150.63
2022-12-18T14:27:53.288Z,100150.44
2022-12-18T14:30:29.131Z,100168.41
2022-12-18T14:33:06.576Z,100166.53
2022-12-18T14:35:35.916Z,100165.38
2022-12-18T14:38:40.476Z,100171.81
2022-12-18T14:41:15.605Z,100173.22
2022-12-18T14:43:45.003Z,100181.22
2022-12-18T14:46:35.109Z,100182.78
2022-12-18T14:49:18.909Z,100169.50
2022-12-18T14:52:21.290Z,100197.91
2022-12-18T14:54:49.023Z,100205.84
2022-12-18T14:57:26.198Z,100217.09
2022-12-18T14:59:53.497Z,100214.34
2022-12-18T15:02:26.466Z,100228.72
2022-12-18T15:05:12.744Z,100228.34
2022-12-18T15:07:44.948Z,100232.19
2022-12-18T15:10:23.203Z,100234.72
2022-12-18T15:13:02.565Z,100238.78
2022-12-18T15:15:38.611Z,100243.59
2022-12-18T15:18:12.788Z,100251.50
2022-12-18T15:20:54.595Z,100249.34
2022-12-18T15:23:25.508Z,100254.59
2022-12-18T15:26:01.619Z,100261.91
2022-12-18T15:28:39.231Z,100263.84
2022-12-18T15:31:10.882Z,100263.72
2022-12-18T15:33:41.811Z,100257.97
2022-12-18T15:36:15.063Z,100271.88
2022-12-18T15:38:42.439Z,100268.75
2022-12-18T15:41:24.540Z,100279.66
2022-12-18T15:43:54.261Z,100275.22
2022-12-18T15:46:24.059Z,100283.84
2022-12-18T15:49:01.393Z,100257.59
2022-12-18T15:51:33.560Z,100276.28
2022-12-18T15:54:04.836Z,100290.81
2022-12-18T15:56:50.751Z,100295.56
2022-12-18T15:59:20.424Z,100288.81
2022-12-18T16:01:50.752Z,100301.63
2022-12-18T16:04:23.282Z,100304.69
2022-12-18T16:07:13.874Z,100295.75
2022-12-18T16:09:38.286Z,100329.09
2022-12-18T16:12:06.465Z,100323.78
2022-12-18T16:14:33.558Z,100326.59
2022-12-18T16:17:03.867Z,100344.16
2022-12-18T16:19:31.169Z,100345.78
2022-12-18T16:21:59.792Z,100348.25
2022-12-18T16:24:32.844Z,100353.56
2022-12-18T16:27:01.392Z,100340.63
2022-12-18T16:29:30.010Z,100370.56
2022-12-18T16:31:58.595Z,100370.53
2022-12-18T16:34:29.307Z,100372.88
2022-12-18T16:37:05.980Z,100362.91
2022-12-18T16:39:35.804Z,100381.19
2022-12-18T16:42:05.609Z,100380.13
2022-12-18T16:44:34.678Z,100387.25
2022-12-18T16:47:04.027Z,100384.22
2022-12-18T16:49:31.266Z,100396.63
2022-12-18T16:51:58.497Z,100394.06
2022-12-18T16:54:30.604Z,100400.72
2022-12-18T16:56:58.180Z,100399.66
2022-12-18T16:59:26.889Z,100405.06
2022-12-18T17:01:56.094Z,100416.00
2022-12-18T17:04:23.718Z,100416.41
2022-12-18T17:06:52.238Z,100417.69
2022-12-18T17:09:26.963Z,100431.38
2022-12-18T17:11:54.452Z,100432.41
2022-12-18T17:14:24.288Z,100436.59
2022-12-18T17:17:19.354Z,100445.31
2022-12-18T17:19:39.331Z,100448.16
2022-12-18T17:22:08.282Z,100453.13
2022-12-18T17:24:35.841Z,100451.25
2022-12-18T17:27:04.212Z,100469.66
2022-12-18T17:29:31.261Z,100474.94
2022-12-18T17:31:58.731Z,100479.00
2022-12-18T17:34:27.931Z,100469.09
2022-12-18T17:36:55.493Z,100466.25
2022-12-18T17:39:22.680Z,100486.44
2022-12-18T17:41:50.424Z,100482.81
2022-12-18T17:44:18.416Z,100484.00
2022-12-18T17:46:46.626Z,100500.00
2022-12-18T17:49:14.333Z,100500.41
2022-12-18T17:51:45.007Z,100491.56
2022-12-18T17:54:12.057Z,100512.75
2022-12-18T17:56:39.684Z,100516.41
2022-12-18T17:59:07.294Z,100525.81
2022-12-18T18:01:36.424Z,100522.13
2022-12-18T18:04:06.036Z,100519.84
2022-12-18T18:06:33.112Z,100523.66
2022-12-18T18:09:01.866Z,100527.38
2022-12-18T18:11:47.654Z,100532.88
2022-12-18T18:14:20.450Z,100541.81
2022-12-18T18:16:49.747Z,100555.94
2022-12-18T18:19:22.554Z,100548.94
2022-12-18T18:21:51.906Z,100562.13
2022-12-18T18:24:23.602Z,100571.66
2022-12-18T18:26:51.084Z,100573.69
2022-12-18T18:29:21.638Z,100575.53
2022-12-18T18:31:49.250Z,100570.16
2022-12-18T18:34:23.231Z,100573.69
2022-12-18T18:36:50.649Z,100592.72
2022-12-18T18:39:18.201Z,100590.38
2022-12-18T18:41:48.253Z,100579.97
2022-12-18T18:44:17.038Z,100596.53
2022-12-18T18:46:44.653Z,100605.19
2022-12-18T18:49:13.799Z,100607.75
2022-12-18T18:51:41.926Z,100600.75
2022-12-18T18:54:09.913Z,100613.81
2022-12-18T18:57:04.008Z,100587.38
2022-12-18T18:59:24.978Z,100605.28
2022-12-18T19:02:04.263Z,100619.31
2022-12-18T19:04:36.622Z,100608.91
2022-12-18T19:07:10.259Z,100626.53
2022-12-18T19:09:37.615Z,100637.41
2022-12-18T19:12:23.596Z,100642.16
2022-12-18T19:14:50.637Z,100670.63
2022-12-18T19:17:17.636Z,100653.47
2022-12-18T19:19:44.713Z,100664.88
2022-12-18T19:22:11.705Z,100681.00
2022-12-18T19:24:41.472Z,100673.66
2022-12-18T19:27:08.724Z,100674.31
2022-12-18T19:29:35.777Z,100669.19
2022-12-18T19:32:04.890Z,100690.91
2022-12-18T19:34:32.076Z,100662.00
2022-12-18T19:37:00.065Z,100692.06
2022-12-18T19:39:27.387Z,100707.53
2022-12-18T19:41:54.769Z,100707.75
2022-12-18T19:44:21.858Z,100698.53
2022-12-18T19:46:50.558Z,100704.41
2022-12-18T19:49:18.247Z,100712.97
2022-12-18T19:51:46.876Z,100718.53
2022-12-18T19:54:17.241Z,100711.97
2022-12-18T19:56:45.233Z,100681.56
2022-12-18T19:59:13.639Z,100714.13
2022-12-18T20:01:41.031Z,100720.16
2022-12-18T20:04:08.325Z,100724.00
2022-12-18T20:06:50.030Z,100728.94
2022-12-18T20:09:17.591Z,100740.19
2022-12-18T20:11:45.274Z,100747.38
2022-12-18T20:14:14.078Z,100750.03
2022-12-18T20:16:42.545Z,100755.00
2022-12-18T20:19:12.304Z,100749.72
2022-12-18T20:21:40.039Z,100756.81
2022-12-18T20:24:08.439Z,100755.06
2022-12-18T20:26:35.526Z,100762.06
2022-12-18T20:29:02.841Z,100761.19
2022-12-18T20:31:30.358Z,100762.03
2022-12-18T20:34:01.495Z,100770.56
2022-12-18T20:36:31.641Z,100769.22
2022-12-18T20:39:01.542Z,100779.88
2022-12-18T20:41:37.490Z,100768.03
2022-12-18T20:44:22.236Z,100769.22
2022-12-18T20:46:56.868Z,100773.91
2022-12-18T20:49:26.131Z,100772.00
2022-12-18T20:51:54.658Z,100763.75
2022-12-18T20:54:22.381Z,100771.94
2022-12-18T20:56:50.041Z,100778.41
2022-12-18T20:59:17.486Z,100777.63
2022-12-18T21:01:48.163Z,100754.00
2022-12-18T21:04:18.414Z,100790.25
2022-12-18T21:06:53.315Z,100765.69
2022-12-18T21:09:23.126Z,100800.94
2022-12-18T21:12:08.928Z,100802.22
2022-12-18T21:14:39.470Z,100799.16
2022-12-18T21:17:06.679Z,100798.78
2022-12-18T21:19:33.750Z,100783.41
2022-12-18T21:22:00.859Z,100797.44
2022-12-18T21:24:28.194Z,100782.31
2022-12-18T21:26:59.637Z,100796.81
2022-12-18T21:29:26.873Z,100797.88
2022-12-18T21:31:54.940Z,100800.25
2022-12-18T21:34:28.050Z,100808.53
2022-12-18T21:36:57.403Z,100807.94
2022-12-18T21:39:25.008Z,100792.56
2022-12-18T21:42:10.571Z,100804.47
2022-12-18T21:44:42.298Z,100811.31
2022-12-18T21:47:22.029Z,100819.06
2022-12-18T21:49:53.444Z,100817.56
2022-12-18T21:52:31.481Z,100817.38
2022-12-18T21:55:03.083Z,100814.84
2022-12-18T21:57:39.924Z,100825.81
2022-12-18T22:00:18.299Z,100818.00
2022-12-18T22:02:47.464Z,100825.44
2022-12-18T22:05:14.715Z,100839.44
2022-12-18T22:07:41.721Z,100834.44
2022-12-18T22:10:09.184Z,100838.69
2022-12-18T22:12:43.812Z,100847.13
2022-12-18T22:15:21.501Z,100856.28
2022-12-18T22:17:59.916Z,100851.03
2022-12-18T22:20:28.398Z,100857.16
2022-12-18T22:22:57.085Z,100855.72
2022-12-18T22:25:24.153Z,100859.16
2022-12-18T22:28:09.819Z,100849.66
2022-12-18T22:30:36.781Z,100863.28
2022-12-18T22:33:04.206Z,100857.34
2022-12-18T22:35:31.211Z,100854.91
2022-12-18T22:38:01.314Z,100829.31
2022-12-18T22:40:28.962Z,100841.50
2022-12-18T22:42:56.346Z,100834.69
2022-12-18T22:45:25.159Z,100848.19
2022-12-18T22:47:52.596Z,100850.91
2022-12-18T22:50:20.780Z,100860.38
2022-12-18T22:52:47.751Z,100865.38
2022-12-18T22:55:14.783Z,100861.03
2022-12-18T22:57:47.984Z,100859.16
2022-12-18T23:00:20.761Z,100865.03
2022-12-18T23:03:00.412Z,100861.50
2022-12-18T23:05:31.422Z,100867.44
2022-12-18T23:07:58.871Z,100871.06
2022-12-18T23:10:26.471Z,100870.06
2022-12-18T23:12:53.451Z,100873.25
2022-12-18T23:15:22.866Z,100877.59
2022-12-18T23:17:55.710Z,100876.75
2022-12-18T23:20:22.809Z,100873.63
2022-12-18T23:22:49.776Z,100882.19
2022-12-18T23:25:16.884Z,100888.03
2022-12-18T23:27:43.853Z,100883.69
2022-12-18T23:30:11.345Z,100895.66
2022-12-18T23:32:38.911Z,100897.31
2022-12-18T23:35:06.430Z,100897.34
2022-12-18T23:37:59.032Z,100900.81
2022-12-18T23:40:21.641Z,100899.22
2022-12-18T23:42:48.664Z,100898.47
2022-12-18T23:45:17.959Z,100908.59
2022-12-18T23:47:45.471Z,100907.63
2022-12-18T23:50:15.290Z,100912.75
2022-12-18T23:52:42.272Z,100910.88
2022-12-18T23:55:09.364Z,100909.28
2022-12-18T23:57:36.395Z,100920.31
